Kecskemet, Hungary
Current Conditions -  °F | °C
As of 2:54 PM on Wednesday 26 Nov 2014 (Local Time) from LHKE Reporting Station
Haze Haze  
Wind Chill: 32°   Ceiling: 800
Heat Index: 37°   Visibility: 0.93mi
Dew Point: 36°   Wind: 7mph
Humidity: 93%   Direction: 70°ENE
Pressure: 30.24"   Gusts: NA
Location:  46.91°N, 19.69°E
Report Text: LHKE 261254Z 07006KT 1500 BR OVC008 03/02 Q1024 TEMPO 1000 BR RMK AMB
Loading
Personal Weather Stations






























Interactive Weather Map New forecast layout! Learn more

10-Day Weather Forecast

Advertisements
Track Severe Weather on mobile